createdAt,value
2023-03-29T00:00:58.895Z,524.00
2023-03-29T00:01:58.817Z,528.00
2023-03-29T00:02:58.888Z,526.00
2023-03-29T00:04:00.444Z,527.00
2023-03-29T00:04:58.754Z,528.00
2023-03-29T00:05:58.773Z,529.00
2023-03-29T00:06:58.775Z,532.00
2023-03-29T00:07:58.742Z,536.00
2023-03-29T00:08:58.741Z,533.00
2023-03-29T00:09:58.752Z,532.00
2023-03-29T00:10:58.724Z,530.00
2023-03-29T00:11:58.729Z,539.00
2023-03-29T00:12:58.776Z,529.00
2023-03-29T00:13:58.673Z,531.00
2023-03-29T00:14:58.674Z,531.00
2023-03-29T00:15:58.652Z,529.00
2023-03-29T00:16:59.026Z,529.00
2023-03-29T00:17:58.722Z,532.00
2023-03-29T00:18:58.654Z,528.00
2023-03-29T00:19:58.640Z,529.00
2023-03-29T00:20:58.755Z,528.00
2023-03-29T00:21:58.695Z,531.00
2023-03-29T00:22:58.628Z,526.00
2023-03-29T00:23:58.683Z,528.00
2023-03-29T00:24:58.596Z,516.00
2023-03-29T00:25:58.601Z,521.00
2023-03-29T00:26:58.603Z,525.00
2023-03-29T00:27:58.623Z,541.00
2023-03-29T00:28:58.585Z,535.00
2023-03-29T00:29:58.583Z,551.00
2023-03-29T00:30:58.625Z,534.00
2023-03-29T00:31:58.674Z,535.00
2023-03-29T00:32:58.587Z,526.00
2023-03-29T00:33:58.537Z,517.00
2023-03-29T00:34:58.526Z,525.00
2023-03-29T00:35:58.544Z,526.00
2023-03-29T00:36:58.528Z,520.00
2023-03-29T00:37:58.512Z,524.00
2023-03-29T00:38:58.479Z,520.00
2023-03-29T00:39:58.497Z,518.00
2023-03-29T00:40:58.557Z,514.00
2023-03-29T00:41:58.487Z,514.00
2023-03-29T00:42:58.512Z,512.00
2023-03-29T00:43:58.462Z,526.00
2023-03-29T00:44:58.499Z,517.00
2023-03-29T00:45:58.454Z,516.00
2023-03-29T00:46:58.454Z,517.00
2023-03-29T00:47:58.535Z,509.00
2023-03-29T00:48:58.459Z,518.00
2023-03-29T00:49:58.430Z,517.00
2023-03-29T00:50:58.429Z,526.00
2023-03-29T00:51:58.432Z,528.00
2023-03-29T00:52:58.415Z,527.00
2023-03-29T00:53:58.397Z,510.00
2023-03-29T00:54:58.405Z,517.00
2023-03-29T00:55:58.401Z,522.00
2023-03-29T00:56:58.401Z,517.00
2023-03-29T00:57:58.373Z,521.00
2023-03-29T00:58:58.391Z,520.00
2023-03-29T00:59:58.350Z,522.00
2023-03-29T01:00:58.328Z,518.00
2023-03-29T01:01:58.385Z,524.00
2023-03-29T01:02:58.419Z,525.00
2023-03-29T01:03:58.346Z,518.00
2023-03-29T01:04:58.316Z,527.00
2023-03-29T01:05:58.303Z,526.00
2023-03-29T01:06:58.364Z,534.00
2023-03-29T01:07:58.328Z,517.00
2023-03-29T01:08:58.283Z,528.00
2023-03-29T01:09:58.262Z,521.00
2023-03-29T01:10:58.252Z,529.00
2023-03-29T01:11:58.269Z,527.00
2023-03-29T01:12:58.382Z,528.00
2023-03-29T01:13:58.273Z,523.00
2023-03-29T01:14:58.245Z,535.00
2023-03-29T01:15:58.255Z,537.00
2023-03-29T01:16:58.215Z,530.00
2023-03-29T01:17:58.421Z,526.00
2023-03-29T01:18:58.280Z,514.00
2023-03-29T01:19:58.338Z,515.00
2023-03-29T01:20:58.183Z,514.00
2023-03-29T01:21:58.173Z,517.00
2023-03-29T01:22:58.175Z,513.00
2023-03-29T01:23:58.265Z,517.00
2023-03-29T01:24:58.142Z,516.00
2023-03-29T01:25:58.174Z,515.00
2023-03-29T01:26:58.142Z,512.00
2023-03-29T01:27:58.181Z,512.00
2023-03-29T01:28:58.141Z,520.00
2023-03-29T01:29:58.131Z,530.00
2023-03-29T01:30:58.129Z,525.00
2023-03-29T01:31:58.174Z,526.00
2023-03-29T01:32:58.137Z,517.00
2023-03-29T01:33:58.120Z,521.00
2023-03-29T01:34:58.118Z,516.00
2023-03-29T01:35:58.063Z,515.00
2023-03-29T01:36:58.074Z,512.00
2023-03-29T01:37:58.076Z,512.00
2023-03-29T01:38:58.112Z,514.00
2023-03-29T01:39:58.070Z,513.00
2023-03-29T01:40:58.061Z,507.00
2023-03-29T01:41:58.061Z,512.00
2023-03-29T01:42:58.076Z,506.00
2023-03-29T01:43:57.998Z,507.00
2023-03-29T01:44:58.028Z,505.00
2023-03-29T01:45:58.117Z,507.00
2023-03-29T01:46:57.988Z,513.00
2023-03-29T01:47:58.099Z,505.00
2023-03-29T01:48:57.959Z,501.00
2023-03-29T01:49:58.013Z,508.00
2023-03-29T01:50:57.991Z,512.00
2023-03-29T01:51:57.970Z,514.00
2023-03-29T01:52:57.961Z,511.00
2023-03-29T01:53:57.991Z,514.00
2023-03-29T01:54:57.935Z,514.00
2023-03-29T01:55:57.947Z,510.00
2023-03-29T01:56:57.982Z,500.00
2023-03-29T01:57:57.964Z,500.00
2023-03-29T01:58:57.922Z,503.00
2023-03-29T01:59:57.891Z,505.00
2023-03-29T02:00:57.970Z,516.00
2023-03-29T02:01:57.964Z,514.00
2023-03-29T02:02:57.950Z,516.00
2023-03-29T02:03:57.894Z,512.00
2023-03-29T02:04:57.921Z,516.00
2023-03-29T02:05:57.866Z,513.00
2023-03-29T02:06:57.855Z,517.00
2023-03-29T02:07:57.877Z,515.00
2023-03-29T02:08:57.848Z,512.00
2023-03-29T02:09:57.848Z,518.00
2023-03-29T02:10:57.827Z,514.00
2023-03-29T02:11:57.808Z,513.00
2023-03-29T02:12:57.821Z,513.00
2023-03-29T02:13:57.818Z,519.00
2023-03-29T02:14:57.771Z,517.00
2023-03-29T02:15:57.806Z,510.00
2023-03-29T02:16:57.768Z,518.00
2023-03-29T02:17:57.874Z,513.00
2023-03-29T02:18:57.748Z,512.00
2023-03-29T02:19:57.753Z,513.00
2023-03-29T02:20:57.775Z,513.00
2023-03-29T02:21:57.775Z,520.00
2023-03-29T02:22:57.754Z,519.00
2023-03-29T02:23:57.752Z,514.00
2023-03-29T02:24:57.730Z,522.00
2023-03-29T02:25:57.741Z,517.00
2023-03-29T02:26:57.744Z,517.00
2023-03-29T02:27:57.735Z,522.00
2023-03-29T02:28:57.708Z,521.00
2023-03-29T02:29:57.671Z,520.00
2023-03-29T02:30:57.736Z,511.00
2023-03-29T02:31:57.688Z,508.00
2023-03-29T02:32:57.688Z,512.00
2023-03-29T02:33:57.663Z,510.00
2023-03-29T02:34:57.665Z,526.00
2023-03-29T02:35:57.665Z,519.00
2023-03-29T02:36:57.679Z,517.00
2023-03-29T02:37:57.757Z,523.00
2023-03-29T02:38:57.628Z,525.00
2023-03-29T02:39:57.642Z,521.00
2023-03-29T02:40:57.605Z,515.00
2023-03-29T02:41:57.625Z,520.00
2023-03-29T02:42:57.691Z,512.00
2023-03-29T02:43:57.589Z,500.00
2023-03-29T02:44:57.571Z,503.00
2023-03-29T02:45:57.580Z,508.00
2023-03-29T02:46:57.680Z,515.00
2023-03-29T02:47:57.614Z,511.00
2023-03-29T02:48:57.575Z,503.00
2023-03-29T02:49:57.534Z,504.00
2023-03-29T02:50:57.571Z,506.00
2023-03-29T02:51:57.534Z,503.00
2023-03-29T02:52:57.525Z,508.00
2023-03-29T02:53:57.519Z,511.00
2023-03-29T02:54:57.496Z,513.00
2023-03-29T02:55:57.504Z,506.00
2023-03-29T02:56:57.498Z,505.00
2023-03-29T02:57:57.515Z,506.00
2023-03-29T02:58:57.470Z,506.00
2023-03-29T02:59:57.496Z,508.00
2023-03-29T03:00:57.487Z,514.00
2023-03-29T03:01:57.501Z,514.00
2023-03-29T03:02:59.277Z,529.00
2023-03-29T03:03:57.527Z,529.00
2023-03-29T03:04:57.466Z,529.00
2023-03-29T03:05:57.436Z,531.00
2023-03-29T03:06:57.421Z,546.00
2023-03-29T03:07:57.436Z,552.00
2023-03-29T03:08:57.412Z,555.00
2023-03-29T03:09:57.397Z,553.00
2023-03-29T03:10:57.399Z,549.00
2023-03-29T03:11:57.373Z,550.00
2023-03-29T03:12:57.395Z,546.00
2023-03-29T03:13:57.384Z,541.00
2023-03-29T03:14:57.390Z,541.00
2023-03-29T03:15:57.415Z,538.00
2023-03-29T03:16:57.395Z,540.00
2023-03-29T03:17:57.401Z,542.00
2023-03-29T03:18:57.348Z,535.00
2023-03-29T03:19:57.339Z,534.00
2023-03-29T03:20:57.317Z,538.00
2023-03-29T03:21:57.321Z,529.00
2023-03-29T03:22:57.324Z,527.00
2023-03-29T03:23:57.290Z,529.00
2023-03-29T03:24:57.285Z,530.00
2023-03-29T03:25:57.286Z,530.00
2023-03-29T03:26:57.317Z,530.00
2023-03-29T03:27:57.249Z,529.00
2023-03-29T03:28:57.237Z,532.00
2023-03-29T03:29:57.261Z,531.00
2023-03-29T03:30:57.256Z,528.00
2023-03-29T03:31:57.249Z,529.00
2023-03-29T03:32:57.280Z,529.00
2023-03-29T03:33:57.241Z,525.00
2023-03-29T03:34:57.207Z,531.00
2023-03-29T03:35:57.342Z,532.00
2023-03-29T03:36:57.211Z,530.00
2023-03-29T03:37:57.170Z,530.00
2023-03-29T03:38:57.184Z,527.00
2023-03-29T03:39:57.191Z,531.00
2023-03-29T03:40:57.175Z,522.00
2023-03-29T03:41:57.146Z,530.00
2023-03-29T03:42:57.213Z,522.00
2023-03-29T03:43:57.150Z,527.00
2023-03-29T03:44:57.163Z,526.00
2023-03-29T03:45:57.156Z,530.00
2023-03-29T03:46:57.135Z,525.00
2023-03-29T03:47:57.212Z,523.00
2023-03-29T03:48:57.210Z,522.00
2023-03-29T03:49:57.092Z,523.00
2023-03-29T03:50:57.076Z,520.00
2023-03-29T03:51:57.121Z,526.00
2023-03-29T03:52:57.315Z,526.00
2023-03-29T03:53:57.210Z,527.00
2023-03-29T03:54:57.225Z,526.00
2023-03-29T03:55:57.315Z,530.00
2023-03-29T03:56:58.190Z,527.00
2023-03-29T03:57:57.416Z,529.00
2023-03-29T03:58:57.447Z,531.00
2023-03-29T03:59:57.521Z,523.00
2023-03-29T04:00:57.512Z,534.00
2023-03-29T04:01:57.603Z,529.00
2023-03-29T04:02:57.743Z,530.00
2023-03-29T04:03:57.717Z,533.00
2023-03-29T04:04:57.729Z,526.00
2023-03-29T04:05:57.789Z,528.00
2023-03-29T04:06:57.827Z,532.00
2023-03-29T04:07:57.875Z,538.00
2023-03-29T04:08:57.953Z,543.00
2023-03-29T04:09:57.981Z,539.00
2023-03-29T04:10:58.026Z,539.00
2023-03-29T04:11:58.069Z,544.00
2023-03-29T04:12:58.092Z,544.00
2023-03-29T04:13:58.153Z,548.00
2023-03-29T04:14:58.210Z,543.00
2023-03-29T04:16:00.887Z,546.00
2023-03-29T04:16:58.301Z,556.00
2023-03-29T04:17:58.323Z,555.00
2023-03-29T04:18:58.279Z,557.00
2023-03-29T04:19:58.215Z,549.00
2023-03-29T04:20:58.246Z,559.00
2023-03-29T04:21:58.219Z,558.00
2023-03-29T04:22:58.228Z,562.00
2023-03-29T04:23:58.214Z,558.00
2023-03-29T04:24:58.215Z,568.00
2023-03-29T04:25:58.190Z,560.00
2023-03-29T04:26:58.200Z,565.00
2023-03-29T04:27:58.170Z,571.00
2023-03-29T04:28:58.185Z,568.00
2023-03-29T04:29:58.199Z,569.00
2023-03-29T04:30:58.185Z,567.00
2023-03-29T04:31:58.157Z,575.00
2023-03-29T04:32:58.159Z,567.00
2023-03-29T04:34:00.326Z,568.00
2023-03-29T04:34:58.127Z,576.00
2023-03-29T04:35:58.181Z,578.00
2023-03-29T04:36:58.199Z,583.00
2023-03-29T04:37:58.258Z,573.00
2023-03-29T04:38:58.311Z,577.00
2023-03-29T04:39:58.345Z,577.00
2023-03-29T04:40:58.375Z,580.00
2023-03-29T04:41:58.424Z,580.00
2023-03-29T04:42:58.484Z,577.00
2023-03-29T04:43:58.497Z,583.00
2023-03-29T04:44:58.596Z,575.00
2023-03-29T04:45:58.628Z,575.00
2023-03-29T04:46:58.646Z,577.00
2023-03-29T04:47:58.760Z,579.00
2023-03-29T04:48:58.728Z,583.00
2023-03-29T04:49:58.758Z,584.00
2023-03-29T04:50:58.907Z,587.00
2023-03-29T04:51:58.904Z,591.00
2023-03-29T04:52:58.911Z,579.00
2023-03-29T04:53:58.980Z,562.00
2023-03-29T04:54:59.053Z,570.00
2023-03-29T04:55:59.120Z,584.00
2023-03-29T04:56:59.160Z,593.00
2023-03-29T04:57:59.252Z,594.00
2023-03-29T04:58:59.322Z,593.00
2023-03-29T04:59:59.337Z,595.00
2023-03-29T05:01:06.969Z,589.00
2023-03-29T05:01:59.412Z,590.00
2023-03-29T05:02:59.362Z,591.00
2023-03-29T05:03:59.379Z,593.00
2023-03-29T05:04:59.386Z,592.00
2023-03-29T05:05:59.314Z,594.00
2023-03-29T05:06:59.297Z,592.00
2023-03-29T05:07:59.279Z,586.00
2023-03-29T05:08:59.286Z,583.00
2023-03-29T05:09:59.246Z,577.00
2023-03-29T05:10:59.356Z,569.00
2023-03-29T05:11:59.276Z,580.00
2023-03-29T05:12:59.279Z,540.00
2023-03-29T05:13:59.251Z,524.00
2023-03-29T05:14:59.250Z,703.00
2023-03-29T05:15:59.289Z,610.00
2023-03-29T05:16:59.241Z,641.00
2023-03-29T05:17:59.255Z,582.00
2023-03-29T05:18:59.182Z,526.00
2023-03-29T05:19:59.190Z,504.00
2023-03-29T05:20:59.227Z,506.00
2023-03-29T05:21:59.273Z,510.00
2023-03-29T05:22:59.270Z,502.00
2023-03-29T05:23:59.343Z,656.00
2023-03-29T05:24:59.402Z,1152.00
2023-03-29T05:26:00.619Z,1520.00
2023-03-29T05:26:59.464Z,1414.00
2023-03-29T05:27:59.513Z,1302.00
2023-03-29T05:28:59.515Z,1240.00
2023-03-29T05:29:59.524Z,1181.00
2023-03-29T05:30:59.788Z,1172.00
2023-03-29T05:31:59.703Z,1082.00
2023-03-29T05:32:59.719Z,1009.00
2023-03-29T05:33:59.738Z,758.00
2023-03-29T05:34:59.744Z,622.00
2023-03-29T05:35:59.860Z,606.00
2023-03-29T05:36:59.872Z,649.00
2023-03-29T05:37:59.953Z,600.00
2023-03-29T05:39:00.364Z,551.00
2023-03-29T05:40:05.762Z,517.00
2023-03-29T05:41:01.270Z,517.00
2023-03-29T05:42:00.152Z,509.00
2023-03-29T05:43:00.006Z,472.00
2023-03-29T05:44:00.355Z,474.00
2023-03-29T05:45:00.154Z,469.00
2023-03-29T05:47:27.085Z,500.00
2023-03-29T05:48:19.661Z,500.00
2023-03-29T05:49:19.296Z,500.00
2023-03-29T05:50:18.944Z,500.00
2023-03-29T05:51:18.968Z,500.00
2023-03-29T05:52:18.967Z,500.00
2023-03-29T05:53:18.980Z,520.00
2023-03-29T05:54:18.986Z,518.00
2023-03-29T05:55:18.988Z,563.00
2023-03-29T05:56:19.068Z,558.00
2023-03-29T05:57:19.107Z,578.00
2023-03-29T05:58:19.057Z,574.00
2023-03-29T05:59:19.102Z,546.00
2023-03-29T06:00:19.096Z,500.00
2023-03-29T06:01:19.089Z,500.00
2023-03-29T06:02:19.145Z,482.00
2023-03-29T06:03:21.214Z,503.00
2023-03-29T06:04:19.088Z,513.00
2023-03-29T06:05:19.158Z,659.00
2023-03-29T06:06:19.056Z,1165.00
2023-03-29T06:07:19.023Z,1175.00
2023-03-29T06:08:19.022Z,1263.00
2023-03-29T06:09:19.096Z,1164.00
2023-03-29T06:10:18.987Z,1163.00
2023-03-29T06:11:19.051Z,1104.00
2023-03-29T06:12:19.056Z,1068.00
2023-03-29T06:13:18.954Z,1072.00
2023-03-29T06:14:19.081Z,1080.00
2023-03-29T06:15:18.970Z,1096.00
2023-03-29T06:16:19.013Z,1118.00
2023-03-29T06:17:19.068Z,1151.00
2023-03-29T06:18:18.995Z,1160.00
2023-03-29T06:19:18.949Z,1136.00
2023-03-29T06:20:18.960Z,1115.00
2023-03-29T06:21:18.913Z,1072.00
2023-03-29T06:22:18.988Z,1098.00
2023-03-29T06:23:18.931Z,1089.00
2023-03-29T06:24:18.936Z,1106.00
2023-03-29T06:25:18.884Z,1079.00
2023-03-29T06:26:19.827Z,1055.00
2023-03-29T06:27:18.893Z,1059.00
2023-03-29T06:28:18.877Z,1063.00
2023-03-29T06:29:18.930Z,1041.00
2023-03-29T06:30:18.884Z,1047.00
2023-03-29T06:31:18.957Z,1061.00
2023-03-29T06:32:18.877Z,1066.00
2023-03-29T06:33:18.897Z,1029.00
2023-03-29T06:34:19.003Z,1028.00
2023-03-29T06:35:18.808Z,1062.00
2023-03-29T06:36:18.851Z,1076.00
2023-03-29T06:37:18.926Z,1121.00
2023-03-29T06:38:18.830Z,1161.00
2023-03-29T06:39:18.930Z,1254.00
2023-03-29T06:40:18.798Z,1290.00
2023-03-29T06:41:18.800Z,1410.00
2023-03-29T06:42:21.598Z,1322.00
2023-03-29T06:43:18.773Z,1267.00
2023-03-29T06:44:19.230Z,1236.00
2023-03-29T06:45:20.634Z,1285.00
2023-03-29T06:46:19.274Z,1293.00
2023-03-29T06:47:26.606Z,1281.00
2023-03-29T06:48:18.859Z,1320.00
2023-03-29T06:49:19.307Z,1270.00
2023-03-29T06:50:18.747Z,1256.00
2023-03-29T06:51:20.595Z,1252.00
2023-03-29T06:52:19.245Z,1182.00
2023-03-29T06:53:18.948Z,1126.00
2023-03-29T06:54:18.686Z,1100.00
2023-03-29T06:55:18.692Z,1103.00
2023-03-29T06:56:18.746Z,1120.00
2023-03-29T06:57:18.775Z,1140.00
2023-03-29T06:58:18.665Z,1162.00
2023-03-29T06:59:19.094Z,1149.00
2023-03-29T07:01:37.709Z,500.00
2023-03-29T07:02:37.592Z,500.00
2023-03-29T07:03:37.785Z,500.00
2023-03-29T07:04:37.715Z,500.00
2023-03-29T07:05:37.550Z,500.00
2023-03-29T07:06:37.511Z,500.00
2023-03-29T07:07:37.513Z,520.00
2023-03-29T07:08:37.507Z,518.00
2023-03-29T07:09:37.810Z,513.00
2023-03-29T07:10:37.479Z,531.00
2023-03-29T07:11:37.528Z,538.00
2023-03-29T07:12:37.609Z,551.00
2023-03-29T07:13:37.600Z,561.00
2023-03-29T07:14:37.749Z,569.00
2023-03-29T07:15:37.656Z,579.00
2023-03-29T07:16:37.813Z,577.00
2023-03-29T07:17:37.807Z,576.00
2023-03-29T07:18:37.749Z,603.00
2023-03-29T07:19:37.785Z,613.00
2023-03-29T07:20:37.810Z,598.00
2023-03-29T07:21:38.074Z,616.00
2023-03-29T07:22:37.901Z,626.00
2023-03-29T07:23:37.967Z,582.00
2023-03-29T07:24:38.015Z,538.00
2023-03-29T07:25:38.014Z,598.00
2023-03-29T07:26:38.036Z,641.00
2023-03-29T07:27:38.103Z,568.00
2023-03-29T07:28:38.044Z,565.00
2023-03-29T07:29:38.267Z,592.00
2023-03-29T07:30:38.133Z,618.00
2023-03-29T07:31:38.173Z,576.00
2023-03-29T07:32:38.226Z,603.00
2023-03-29T07:33:38.356Z,633.00
2023-03-29T07:34:38.210Z,668.00
2023-03-29T07:35:38.265Z,623.00
2023-03-29T07:36:38.229Z,571.00
2023-03-29T07:37:38.216Z,584.00
2023-03-29T07:38:38.300Z,583.00
2023-03-29T07:39:38.290Z,564.00
2023-03-29T07:40:38.301Z,565.00
2023-03-29T07:41:38.312Z,557.00
2023-03-29T07:42:38.313Z,535.00
2023-03-29T07:43:38.323Z,506.00
2023-03-29T07:44:38.331Z,506.00
2023-03-29T07:45:38.778Z,546.00
2023-03-29T07:46:38.382Z,596.00
2023-03-29T07:47:39.180Z,628.00
2023-03-29T07:48:38.454Z,637.00
2023-03-29T07:49:38.462Z,626.00
2023-03-29T07:50:38.469Z,606.00
2023-03-29T07:51:38.451Z,620.00
2023-03-29T07:52:38.479Z,601.00
2023-03-29T07:54:57.331Z,500.00
2023-03-29T07:55:57.336Z,500.00
2023-03-29T07:56:57.446Z,500.00
2023-03-29T07:57:57.315Z,500.00
2023-03-29T07:58:57.319Z,500.00
2023-03-29T07:59:57.302Z,500.00
2023-03-29T08:00:57.478Z,500.00
2023-03-29T08:01:57.297Z,496.00
2023-03-29T08:02:57.385Z,505.00
2023-03-29T08:03:57.376Z,501.00
2023-03-29T08:04:57.338Z,511.00
2023-03-29T08:05:57.352Z,503.00
2023-03-29T08:06:57.328Z,513.00
2023-03-29T08:07:57.944Z,506.00
2023-03-29T08:08:57.262Z,532.00
2023-03-29T08:09:57.264Z,542.00
2023-03-29T08:10:57.216Z,508.00
2023-03-29T08:11:57.324Z,500.00
2023-03-29T08:12:57.206Z,500.00
2023-03-29T08:13:57.225Z,506.00
2023-03-29T08:14:57.284Z,504.00
2023-03-29T08:15:57.253Z,501.00
2023-03-29T08:16:57.388Z,508.00
2023-03-29T08:17:57.209Z,518.00
2023-03-29T08:18:57.224Z,513.00
2023-03-29T08:19:58.450Z,517.00
2023-03-29T08:20:57.212Z,509.00
2023-03-29T08:21:57.172Z,500.00
2023-03-29T08:22:57.957Z,502.00
2023-03-29T08:23:57.133Z,510.00
2023-03-29T08:24:57.132Z,503.00
2023-03-29T08:25:57.157Z,534.00
2023-03-29T08:26:57.135Z,515.00
2023-03-29T08:27:57.610Z,514.00
2023-03-29T08:28:57.102Z,532.00
2023-03-29T08:29:57.320Z,556.00
2023-03-29T08:30:57.125Z,579.00
2023-03-29T08:31:57.097Z,561.00
2023-03-29T08:32:57.082Z,495.00
2023-03-29T08:33:57.038Z,483.00
2023-03-29T08:34:57.561Z,500.00
2023-03-29T08:35:57.077Z,501.00
2023-03-29T08:36:57.022Z,500.00
2023-03-29T08:37:57.062Z,503.00
2023-03-29T08:38:57.004Z,527.00
2023-03-29T08:39:57.049Z,564.00
2023-03-29T08:40:57.099Z,616.00
2023-03-29T08:41:57.034Z,634.00
2023-03-29T08:42:56.968Z,643.00
2023-03-29T08:43:57.021Z,638.00
2023-03-29T08:44:57.054Z,637.00
2023-03-29T08:45:57.011Z,614.00
2023-03-29T08:46:57.064Z,560.00
2023-03-29T08:47:57.080Z,538.00
2023-03-29T08:48:56.994Z,531.00
2023-03-29T08:49:57.035Z,523.00
2023-03-29T08:50:57.026Z,545.00
2023-03-29T08:51:57.029Z,560.00
2023-03-29T08:52:57.035Z,568.00
2023-03-29T08:53:57.048Z,400.00
2023-03-29T08:54:57.092Z,400.00
2023-03-29T08:55:57.139Z,487.00
2023-03-29T08:56:57.139Z,560.00
2023-03-29T08:57:57.103Z,641.00
2023-03-29T08:58:57.120Z,661.00
2023-03-29T08:59:57.125Z,665.00
2023-03-29T09:00:57.116Z,717.00
2023-03-29T09:01:57.245Z,799.00
2023-03-29T09:02:57.309Z,753.00
2023-03-29T09:03:57.376Z,676.00
2023-03-29T09:04:57.420Z,710.00
2023-03-29T09:05:57.510Z,872.00
2023-03-29T09:06:57.403Z,808.00
2023-03-29T09:07:57.507Z,714.00
2023-03-29T09:08:57.493Z,706.00
2023-03-29T09:09:57.553Z,749.00
2023-03-29T09:10:57.606Z,661.00
2023-03-29T09:11:57.619Z,651.00
2023-03-29T09:12:57.711Z,670.00
2023-03-29T09:13:57.695Z,713.00
2023-03-29T09:14:57.733Z,675.00
2023-03-29T09:15:57.784Z,718.00
2023-03-29T09:16:57.782Z,749.00
2023-03-29T09:17:57.835Z,746.00
2023-03-29T09:18:57.826Z,840.00
2023-03-29T09:19:58.080Z,845.00
2023-03-29T09:20:58.173Z,764.00
2023-03-29T09:21:57.993Z,839.00
2023-03-29T09:22:57.931Z,804.00
2023-03-29T09:23:58.003Z,842.00
2023-03-29T09:24:58.045Z,863.00
2023-03-29T09:25:58.053Z,850.00
2023-03-29T09:26:58.044Z,813.00
2023-03-29T09:27:58.109Z,822.00
2023-03-29T09:28:58.145Z,843.00
2023-03-29T09:29:58.174Z,914.00
2023-03-29T09:30:58.180Z,924.00
2023-03-29T09:31:58.287Z,944.00
2023-03-29T09:32:58.287Z,966.00
2023-03-29T09:33:58.307Z,978.00
2023-03-29T09:34:58.339Z,973.00
2023-03-29T09:35:58.715Z,958.00
2023-03-29T09:36:58.397Z,919.00
2023-03-29T09:37:58.394Z,921.00
2023-03-29T09:38:58.453Z,910.00
2023-03-29T09:39:58.520Z,901.00
2023-03-29T09:40:58.761Z,914.00
2023-03-29T09:41:58.589Z,921.00
2023-03-29T09:42:58.686Z,937.00
2023-03-29T09:43:58.686Z,826.00
2023-03-29T09:44:58.770Z,785.00
2023-03-29T09:45:59.149Z,663.00
2023-03-29T09:46:58.764Z,646.00
2023-03-29T09:47:58.887Z,665.00
2023-03-29T09:48:58.813Z,795.00
2023-03-29T09:49:58.937Z,802.00
2023-03-29T09:50:58.937Z,787.00
2023-03-29T09:51:58.988Z,825.00
2023-03-29T09:52:59.025Z,790.00
2023-03-29T09:53:59.034Z,791.00
2023-03-29T09:54:58.996Z,807.00
2023-03-29T09:55:59.035Z,966.00
2023-03-29T09:56:59.089Z,907.00
2023-03-29T09:57:59.165Z,888.00
2023-03-29T09:58:59.149Z,846.00
2023-03-29T09:59:59.179Z,789.00
2023-03-29T10:00:59.792Z,799.00
2023-03-29T10:01:59.233Z,891.00
2023-03-29T10:02:59.249Z,856.00
2023-03-29T10:03:59.200Z,899.00
2023-03-29T10:04:59.254Z,927.00
2023-03-29T10:05:59.592Z,883.00
2023-03-29T10:06:59.218Z,860.00
2023-03-29T10:07:59.325Z,644.00
2023-03-29T10:09:00.362Z,644.00
2023-03-29T10:09:59.423Z,633.00
2023-03-29T10:10:59.322Z,609.00
2023-03-29T10:11:59.392Z,599.00
2023-03-29T10:12:59.425Z,562.00
2023-03-29T10:13:59.400Z,554.00
2023-03-29T10:14:59.441Z,530.00
2023-03-29T10:15:59.685Z,548.00
2023-03-29T10:16:59.538Z,540.00
2023-03-29T10:17:59.602Z,500.00
2023-03-29T10:19:00.466Z,431.00
2023-03-29T10:20:01.450Z,468.00
2023-03-29T10:20:59.647Z,496.00
2023-03-29T10:21:59.519Z,503.00
2023-03-29T10:22:59.521Z,503.00
2023-03-29T10:23:59.489Z,502.00
2023-03-29T10:24:59.522Z,505.00
2023-03-29T10:25:59.497Z,533.00
2023-03-29T10:26:59.504Z,540.00
2023-03-29T10:27:59.438Z,576.00
2023-03-29T10:28:59.486Z,471.00
2023-03-29T10:29:59.445Z,453.00
2023-03-29T10:30:59.441Z,497.00
2023-03-29T10:31:59.438Z,500.00
2023-03-29T10:32:59.375Z,506.00
2023-03-29T10:33:59.371Z,513.00
2023-03-29T10:35:00.014Z,512.00
2023-03-29T10:35:59.632Z,533.00
2023-03-29T10:36:59.351Z,609.00
2023-03-29T10:37:59.370Z,632.00
2023-03-29T10:38:59.410Z,665.00
2023-03-29T10:39:59.358Z,829.00
2023-03-29T10:40:59.329Z,1036.00
2023-03-29T10:41:59.332Z,1130.00
2023-03-29T10:42:59.328Z,1043.00
2023-03-29T10:43:59.302Z,871.00
2023-03-29T10:44:59.414Z,993.00
2023-03-29T10:45:59.359Z,1044.00
2023-03-29T10:46:59.263Z,1073.00
2023-03-29T10:47:59.372Z,1165.00
2023-03-29T10:48:59.274Z,1223.00
2023-03-29T10:49:59.296Z,1110.00
2023-03-29T10:50:59.328Z,980.00
2023-03-29T10:51:59.253Z,1062.00
2023-03-29T10:52:59.277Z,1095.00
2023-03-29T10:53:59.222Z,897.00
2023-03-29T10:54:59.362Z,815.00
2023-03-29T10:55:59.228Z,803.00
2023-03-29T10:56:59.234Z,799.00
2023-03-29T10:57:59.202Z,703.00
2023-03-29T10:58:59.194Z,939.00
2023-03-29T10:59:59.176Z,984.00
2023-03-29T11:00:59.184Z,659.00
2023-03-29T11:01:59.212Z,641.00
2023-03-29T11:02:59.220Z,619.00
2023-03-29T11:03:59.277Z,621.00
2023-03-29T11:04:59.210Z,590.00
2023-03-29T11:05:59.146Z,554.00
2023-03-29T11:06:59.154Z,578.00
2023-03-29T11:07:59.173Z,882.00
2023-03-29T11:08:59.132Z,638.00
2023-03-29T11:09:59.103Z,606.00
2023-03-29T11:10:59.110Z,624.00
2023-03-29T11:12:14.425Z,584.00
2023-03-29T11:13:00.122Z,566.00
2023-03-29T11:14:00.061Z,545.00
2023-03-29T11:14:59.074Z,526.00
2023-03-29T11:15:59.185Z,619.00
2023-03-29T11:17:06.949Z,619.00
2023-03-29T11:17:59.134Z,585.00
2023-03-29T11:18:59.075Z,584.00
2023-03-29T11:19:59.070Z,573.00
2023-03-29T11:20:59.132Z,563.00
2023-03-29T11:21:59.041Z,547.00
2023-03-29T11:22:59.050Z,547.00
2023-03-29T11:23:59.058Z,515.00
2023-03-29T11:24:59.064Z,473.00
2023-03-29T11:25:59.140Z,556.00
2023-03-29T11:26:59.028Z,641.00
2023-03-29T11:27:59.028Z,777.00
2023-03-29T11:28:58.986Z,1026.00
2023-03-29T11:29:58.989Z,1189.00
2023-03-29T11:30:59.200Z,1393.00
2023-03-29T11:31:59.264Z,1006.00
2023-03-29T11:32:59.034Z,822.00
2023-03-29T11:33:59.103Z,698.00
2023-03-29T11:34:59.021Z,599.00
2023-03-29T11:35:59.182Z,516.00
2023-03-29T11:36:59.142Z,489.00
2023-03-29T11:37:59.117Z,514.00
2023-03-29T11:38:59.137Z,500.00
2023-03-29T11:39:59.192Z,511.00
2023-03-29T11:40:59.236Z,525.00
2023-03-29T11:41:59.238Z,553.00
2023-03-29T11:42:59.241Z,693.00
2023-03-29T11:43:59.422Z,820.00
2023-03-29T11:44:59.369Z,722.00
2023-03-29T11:45:59.671Z,715.00
2023-03-29T11:46:59.461Z,641.00
2023-03-29T11:47:59.565Z,621.00
2023-03-29T11:48:59.551Z,625.00
2023-03-29T11:49:59.545Z,581.00
2023-03-29T11:50:59.607Z,560.00
2023-03-29T11:51:59.646Z,550.00
2023-03-29T11:52:59.647Z,555.00
2023-03-29T11:53:59.614Z,821.00
2023-03-29T11:54:59.684Z,1137.00
2023-03-29T11:55:59.683Z,1112.00
2023-03-29T11:56:59.755Z,951.00
2023-03-29T11:57:59.795Z,1021.00
2023-03-29T11:58:59.754Z,1444.00
2023-03-29T11:59:59.781Z,1421.00
2023-03-29T12:01:00.326Z,1513.00
2023-03-29T12:01:59.879Z,1469.00
2023-03-29T12:02:59.929Z,1465.00
2023-03-29T12:03:59.878Z,1495.00
2023-03-29T12:05:07.519Z,1612.00
2023-03-29T12:05:59.935Z,1618.00
2023-03-29T12:06:59.873Z,1631.00
2023-03-29T12:07:59.869Z,1647.00
2023-03-29T12:08:59.838Z,1709.00
2023-03-29T12:09:59.886Z,1744.00
2023-03-29T12:10:59.838Z,1803.00
2023-03-29T12:11:59.860Z,1867.00
2023-03-29T12:12:59.825Z,1987.00
2023-03-29T12:13:59.839Z,2072.00
2023-03-29T12:14:59.819Z,1948.00
2023-03-29T12:15:59.795Z,2094.00
2023-03-29T12:16:59.831Z,2165.00
2023-03-29T12:17:59.825Z,2207.00
2023-03-29T12:18:59.799Z,2242.00
2023-03-29T12:19:59.751Z,2239.00
2023-03-29T12:20:59.823Z,2252.00
2023-03-29T12:21:59.780Z,2242.00
2023-03-29T12:22:59.789Z,2272.00
2023-03-29T12:23:59.710Z,2265.00
2023-03-29T12:24:59.694Z,2277.00
2023-03-29T12:25:59.756Z,2295.00
2023-03-29T12:26:59.764Z,2356.00
2023-03-29T12:27:59.758Z,2339.00
2023-03-29T12:28:59.755Z,2337.00
2023-03-29T12:29:59.731Z,2331.00